sensor_id;sensor_type;location;lat;lon;timestamp;pressure;altitude;pressure_sealevel;temperature;humidity
64610;BME280;51019;46.090;6.350;2023-02-02T00:00:16;97887.47;;;1.63;100.00
64610;BME280;51019;46.090;6.350;2023-02-02T00:02:47;97885.28;;;1.53;100.00
64610;BME280;51019;46.090;6.350;2023-02-02T00:05:15;97870.34;;;1.36;100.00
64610;BME280;51019;46.090;6.350;2023-02-02T00:07:43;97875.94;;;1.49;100.00
64610;BME280;51019;46.090;6.350;2023-02-02T00:10:12;97876.78;;;1.49;100.00
64610;BME280;51019;46.090;6.350;2023-02-02T00:12:40;97863.78;;;1.27;100.00
64610;BME280;51019;46.090;6.350;2023-02-02T00:15:10;97874.63;;;1.37;100.00
64610;BME280;51019;46.090;6.350;2023-02-02T00:17:37;97858.97;;;1.41;100.00
64610;BME280;51019;46.090;6.350;2023-02-02T00:20:08;97872.00;;;1.38;100.00
64610;BME280;51019;46.090;6.350;2023-02-02T00:22:36;97880.66;;;1.37;100.00
64610;BME280;51019;46.090;6.350;2023-02-02T00:25:06;97879.03;;;1.35;100.00
64610;BME280;51019;46.090;6.350;2023-02-02T00:27:34;97878.34;;;1.30;100.00
64610;BME280;51019;46.090;6.350;2023-02-02T00:30:02;97852.97;;;1.41;100.00
64610;BME280;51019;46.090;6.350;2023-02-02T00:32:30;97857.09;;;1.47;100.00
64610;BME280;51019;46.090;6.350;2023-02-02T00:34:58;97856.34;;;1.43;100.00
64610;BME280;51019;46.090;6.350;2023-02-02T00:37:28;97849.41;;;1.45;100.00
64610;BME280;51019;46.090;6.350;2023-02-02T00:39:57;97852.69;;;1.49;100.00
64610;BME280;51019;46.090;6.350;2023-02-02T00:42:25;97824.94;;;1.30;100.00
64610;BME280;51019;46.090;6.350;2023-02-02T00:44:52;97845.31;;;1.38;100.00
64610;BME280;51019;46.090;6.350;2023-02-02T00:47:37;97824.00;;;1.33;100.00
64610;BME280;51019;46.090;6.350;2023-02-02T00:50:06;97836.91;;;1.33;100.00
64610;BME280;51019;46.090;6.350;2023-02-02T00:52:35;97832.34;;;1.39;100.00
64610;BME280;51019;46.090;6.350;2023-02-02T00:55:05;97847.03;;;1.62;100.00
64610;BME280;51019;46.090;6.350;2023-02-02T00:57:33;97807.56;;;1.35;100.00
64610;BME280;51019;46.090;6.350;2023-02-02T01:00:01;97833.75;;;1.48;100.00
64610;BME280;51019;46.090;6.350;2023-02-02T01:02:29;97831.25;;;1.47;100.00
64610;BME280;51019;46.090;6.350;2023-02-02T01:04:57;97818.09;;;1.29;100.00
64610;BME280;51019;46.090;6.350;2023-02-02T01:07:25;97824.84;;;1.33;100.00
64610;BME280;51019;46.090;6.350;2023-02-02T01:09:55;97823.31;;;1.03;100.00
64610;BME280;51019;46.090;6.350;2023-02-02T01:12:23;97733.41;;;0.41;100.00
64610;BME280;51019;46.090;6.350;2023-02-02T01:14:52;97826.88;;;1.00;100.00
64610;BME280;51019;46.090;6.350;2023-02-02T01:17:21;97829.09;;;1.34;100.00
64610;BME280;51019;46.090;6.350;2023-02-02T01:19:48;97828.41;;;1.29;100.00
64610;BME280;51019;46.090;6.350;2023-02-02T01:22:16;97767.63;;;0.96;100.00
64610;BME280;51019;46.090;6.350;2023-02-02T01:24:44;97768.56;;;0.93;100.00
64610;BME280;51019;46.090;6.350;2023-02-02T01:27:15;97852.66;;;1.25;100.00
64610;BME280;51019;46.090;6.350;2023-02-02T01:29:44;97808.38;;;0.88;100.00
64610;BME280;51019;46.090;6.350;2023-02-02T01:32:12;97849.78;;;1.09;100.00
64610;BME280;51019;46.090;6.350;2023-02-02T01:34:41;97844.66;;;1.08;100.00
64610;BME280;51019;46.090;6.350;2023-02-02T01:37:09;97856.94;;;1.26;100.00
64610;BME280;51019;46.090;6.350;2023-02-02T01:39:38;97852.13;;;1.16;100.00
64610;BME280;51019;46.090;6.350;2023-02-02T01:42:14;97838.44;;;1.14;100.00
64610;BME280;51019;46.090;6.350;2023-02-02T01:45:06;97839.66;;;1.03;100.00
64610;BME280;51019;46.090;6.350;2023-02-02T01:47:43;97833.06;;;0.95;100.00
64610;BME280;51019;46.090;6.350;2023-02-02T01:50:20;97840.41;;;1.07;100.00
64610;BME280;51019;46.090;6.350;2023-02-02T01:52:52;97843.31;;;1.23;100.00
64610;BME280;51019;46.090;6.350;2023-02-02T01:55:23;97835.28;;;1.05;100.00
64610;BME280;51019;46.090;6.350;2023-02-02T01:57:57;97851.78;;;1.01;100.00
64610;BME280;51019;46.090;6.350;2023-02-02T02:00:26;97847.63;;;0.97;100.00
64610;BME280;51019;46.090;6.350;2023-02-02T02:02:56;97852.69;;;1.00;100.00
64610;BME280;51019;46.090;6.350;2023-02-02T02:05:28;97800.19;;;0.75;100.00
64610;BME280;51019;46.090;6.350;2023-02-02T02:08:04;97853.91;;;1.14;100.00
64610;BME280;51019;46.090;6.350;2023-02-02T02:10:35;97850.16;;;1.24;100.00
64610;BME280;51019;46.090;6.350;2023-02-02T02:13:06;97845.50;;;1.08;100.00
64610;BME280;51019;46.090;6.350;2023-02-02T02:15:40;97831.22;;;0.98;100.00
64610;BME280;51019;46.090;6.350;2023-02-02T02:18:38;97846.66;;;1.25;100.00
64610;BME280;51019;46.090;6.350;2023-02-02T02:21:38;97848.47;;;1.23;100.00
64610;BME280;51019;46.090;6.350;2023-02-02T02:28:09;97832.75;;;1.04;100.00
64610;BME280;51019;46.090;6.350;2023-02-02T02:31:06;97845.78;;;1.01;100.00
64610;BME280;51019;46.090;6.350;2023-02-02T02:33:46;97831.56;;;0.63;100.00
64610;BME280;51019;46.090;6.350;2023-02-02T02:36:18;97850.69;;;0.82;100.00
64610;BME280;51019;46.090;6.350;2023-02-02T02:39:00;97854.44;;;0.73;100.00
64610;BME280;51019;46.090;6.350;2023-02-02T02:41:33;97858.72;;;0.75;100.00
64610;BME280;51019;46.090;6.350;2023-02-02T02:44:08;97867.59;;;0.66;100.00
64610;BME280;51019;46.090;6.350;2023-02-02T02:46:38;97859.06;;;0.36;100.00
64610;BME280;51019;46.090;6.350;2023-02-02T02:49:09;97856.47;;;0.10;100.00
64610;BME280;51019;46.090;6.350;2023-02-02T02:51:44;97846.41;;;0.00;100.00
64610;BME280;51019;46.090;6.350;2023-02-02T02:54:16;97865.19;;;0.06;100.00
64610;BME280;51019;46.090;6.350;2023-02-02T02:56:56;97874.66;;;0.05;100.00
64610;BME280;51019;46.090;6.350;2023-02-02T02:59:35;97878.41;;;-0.05;100.00
64610;BME280;51019;46.090;6.350;2023-02-02T03:02:18;97874.16;;;-0.08;100.00
64610;BME280;51019;46.090;6.350;2023-02-02T03:05:03;97871.38;;;0.00;100.00
64610;BME280;51019;46.090;6.350;2023-02-02T03:07:38;97855.44;;;-0.13;100.00
64610;BME280;51019;46.090;6.350;2023-02-02T03:10:10;97841.50;;;-0.66;100.00
64610;BME280;51019;46.090;6.350;2023-02-02T03:12:44;97850.75;;;-0.59;100.00
64610;BME280;51019;46.090;6.350;2023-02-02T03:15:14;97851.75;;;-0.64;100.00
64610;BME280;51019;46.090;6.350;2023-02-02T03:17:44;97866.25;;;-0.60;100.00
64610;BME280;51019;46.090;6.350;2023-02-02T03:20:16;97856.97;;;-0.67;100.00
64610;BME280;51019;46.090;6.350;2023-02-02T03:22:44;97863.22;;;-0.76;100.00
64610;BME280;51019;46.090;6.350;2023-02-02T03:25:12;97863.69;;;-0.93;100.00
64610;BME280;51019;46.090;6.350;2023-02-02T03:27:41;97850.53;;;-1.15;100.00
64610;BME280;51019;46.090;6.350;2023-02-02T03:30:11;97860.63;;;-1.07;100.00
64610;BME280;51019;46.090;6.350;2023-02-02T03:32:39;97862.16;;;-1.01;100.00
64610;BME280;51019;46.090;6.350;2023-02-02T03:35:10;97851.44;;;-1.17;100.00
64610;BME280;51019;46.090;6.350;2023-02-02T03:37:40;97843.28;;;-1.34;100.00
64610;BME280;51019;46.090;6.350;2023-02-02T03:40:10;97840.41;;;-1.22;100.00
64610;BME280;51019;46.090;6.350;2023-02-02T03:42:40;97845.72;;;-1.28;100.00
64610;BME280;51019;46.090;6.350;2023-02-02T03:45:09;97849.38;;;-1.03;100.00
64610;BME280;51019;46.090;6.350;2023-02-02T03:47:37;97739.53;;;-1.66;100.00
64610;BME280;51019;46.090;6.350;2023-02-02T03:50:06;97840.59;;;-0.96;100.00
64610;BME280;51019;46.090;6.350;2023-02-02T03:52:37;97839.69;;;-0.93;100.00
64610;BME280;51019;46.090;6.350;2023-02-02T03:55:08;97849.94;;;-1.24;100.00
64610;BME280;51019;46.090;6.350;2023-02-02T03:57:36;97855.41;;;-1.38;100.00
64610;BME280;51019;46.090;6.350;2023-02-02T04:00:07;97765.34;;;-2.04;100.00
64610;BME280;51019;46.090;6.350;2023-02-02T04:02:36;97851.91;;;-1.35;100.00
64610;BME280;51019;46.090;6.350;2023-02-02T04:05:05;97851.41;;;-1.50;100.00
64610;BME280;51019;46.090;6.350;2023-02-02T04:07:33;97799.94;;;-1.82;100.00
64610;BME280;51019;46.090;6.350;2023-02-02T04:10:02;97826.47;;;-1.81;100.00
64610;BME280;51019;46.090;6.350;2023-02-02T04:12:34;97843.94;;;-1.60;100.00
64610;BME280;51019;46.090;6.350;2023-02-02T04:15:02;97848.31;;;-1.64;100.00
64610;BME280;51019;46.090;6.350;2023-02-02T04:17:33;97836.63;;;-1.77;100.00
64610;BME280;51019;46.090;6.350;2023-02-02T04:20:10;97848.66;;;-1.79;100.00
64610;BME280;51019;46.090;6.350;2023-02-02T04:22:41;97839.75;;;-2.01;100.00
64610;BME280;51019;46.090;6.350;2023-02-02T04:25:09;97859.94;;;-1.85;100.00
64610;BME280;51019;46.090;6.350;2023-02-02T04:27:39;97775.38;;;-2.32;100.00
64610;BME280;51019;46.090;6.350;2023-02-02T04:30:08;97835.81;;;-2.16;100.00
64610;BME280;51019;46.090;6.350;2023-02-02T04:32:36;97843.66;;;-2.24;100.00
64610;BME280;51019;46.090;6.350;2023-02-02T04:35:05;97860.72;;;-2.20;100.00
64610;BME280;51019;46.090;6.350;2023-02-02T04:37:34;97838.69;;;-2.30;100.00
64610;BME280;51019;46.090;6.350;2023-02-02T04:40:02;97858.06;;;-2.15;100.00
64610;BME280;51019;46.090;6.350;2023-02-02T04:42:30;97868.38;;;-2.16;100.00
64610;BME280;51019;46.090;6.350;2023-02-02T04:45:01;97866.69;;;-2.19;100.00
64610;BME280;51019;46.090;6.350;2023-02-02T04:47:30;97869.28;;;-2.21;100.00
64610;BME280;51019;46.090;6.350;2023-02-02T04:50:11;97862.47;;;-2.22;100.00
64610;BME280;51019;46.090;6.350;2023-02-02T04:52:39;97883.00;;;-2.22;100.00
64610;BME280;51019;46.090;6.350;2023-02-02T04:55:08;97869.59;;;-2.36;100.00
64610;BME280;51019;46.090;6.350;2023-02-02T04:57:36;97866.97;;;-2.33;100.00
64610;BME280;51019;46.090;6.350;2023-02-02T05:00:08;97880.81;;;-2.38;100.00
64610;BME280;51019;46.090;6.350;2023-02-02T05:02:36;97881.72;;;-2.41;100.00
64610;BME280;51019;46.090;6.350;2023-02-02T05:05:06;97885.00;;;-2.36;100.00
64610;BME280;51019;46.090;6.350;2023-02-02T05:07:37;97883.38;;;-2.38;100.00
64610;BME280;51019;46.090;6.350;2023-02-02T05:10:07;97889.47;;;-2.44;100.00
64610;BME280;51019;46.090;6.350;2023-02-02T05:12:38;97840.06;;;-2.55;100.00
64610;BME280;51019;46.090;6.350;2023-02-02T05:15:10;97875.34;;;-2.23;100.00
64610;BME280;51019;46.090;6.350;2023-02-02T05:17:39;97896.78;;;-2.26;100.00
64610;BME280;51019;46.090;6.350;2023-02-02T05:20:08;97891.00;;;-2.35;100.00
64610;BME280;51019;46.090;6.350;2023-02-02T05:22:37;97879.34;;;-2.50;100.00
64610;BME280;51019;46.090;6.350;2023-02-02T05:25:07;97867.47;;;-2.57;100.00
64610;BME280;51019;46.090;6.350;2023-02-02T05:27:43;97887.72;;;-2.42;100.00
64610;BME280;51019;46.090;6.350;2023-02-02T05:30:15;97898.38;;;-2.62;100.00
64610;BME280;51019;46.090;6.350;2023-02-02T05:32:45;97896.28;;;-2.41;100.00
64610;BME280;51019;46.090;6.350;2023-02-02T05:35:23;97906.81;;;-2.55;100.00
64610;BME280;51019;46.090;6.350;2023-02-02T05:37:58;97901.84;;;-2.64;100.00
64610;BME280;51019;46.090;6.350;2023-02-02T05:40:26;97889.00;;;-2.63;100.00
64610;BME280;51019;46.090;6.350;2023-02-02T05:42:54;97856.09;;;-2.87;100.00
64610;BME280;51019;46.090;6.350;2023-02-02T05:45:23;97901.72;;;-2.58;100.00
64610;BME280;51019;46.090;6.350;2023-02-02T05:47:52;97911.84;;;-2.50;100.00
64610;BME280;51019;46.090;6.350;2023-02-02T05:50:19;97917.88;;;-2.51;100.00
64610;BME280;51019;46.090;6.350;2023-02-02T05:52:49;97915.19;;;-2.47;100.00
64610;BME280;51019;46.090;6.350;2023-02-02T05:55:18;97906.72;;;-2.50;100.00
64610;BME280;51019;46.090;6.350;2023-02-02T05:57:45;97910.81;;;-2.42;100.00
64610;BME280;51019;46.090;6.350;2023-02-02T06:00:14;97910.00;;;-2.44;100.00
64610;BME280;51019;46.090;6.350;2023-02-02T06:02:44;97915.03;;;-2.38;100.00
64610;BME280;51019;46.090;6.350;2023-02-02T06:05:13;97912.47;;;-2.38;100.00
64610;BME280;51019;46.090;6.350;2023-02-02T06:07:42;97917.53;;;-2.36;100.00
64610;BME280;51019;46.090;6.350;2023-02-02T06:10:13;97922.63;;;-2.33;100.00
64610;BME280;51019;46.090;6.350;2023-02-02T06:12:41;97900.63;;;-2.46;100.00
64610;BME280;51019;46.090;6.350;2023-02-02T06:15:10;97924.97;;;-2.21;100.00
64610;BME280;51019;46.090;6.350;2023-02-02T06:17:38;97928.28;;;-2.16;100.00
64610;BME280;51019;46.090;6.350;2023-02-02T06:20:08;97925.50;;;-2.05;100.00
64610;BME280;51019;46.090;6.350;2023-02-02T06:22:36;97924.44;;;-1.95;100.00
64610;BME280;51019;46.090;6.350;2023-02-02T06:25:04;97913.53;;;-2.06;100.00
64610;BME280;51019;46.090;6.350;2023-02-02T06:27:34;97914.38;;;-2.06;100.00
64610;BME280;51019;46.090;6.350;2023-02-02T06:30:03;97911.84;;;-2.07;100.00
64610;BME280;51019;46.090;6.350;2023-02-02T06:32:31;97917.94;;;-2.13;100.00
64610;BME280;51019;46.090;6.350;2023-02-02T06:34:59;97923.66;;;-2.00;100.00
64610;BME280;51019;46.090;6.350;2023-02-02T06:37:28;97845.19;;;-2.55;100.00
64610;BME280;51019;46.090;6.350;2023-02-02T06:39:55;97927.06;;;-2.00;100.00
64610;BME280;51019;46.090;6.350;2023-02-02T06:42:22;97926.13;;;-1.94;100.00
64610;BME280;51019;46.090;6.350;2023-02-02T06:44:49;97930.94;;;-1.80;100.00
64610;BME280;51019;46.090;6.350;2023-02-02T06:47:17;97891.22;;;-2.04;100.00
64610;BME280;51019;46.090;6.350;2023-02-02T06:49:44;97926.63;;;-1.78;100.00
64610;BME280;51019;46.090;6.350;2023-02-02T06:52:12;97921.44;;;-1.77;100.00
64610;BME280;51019;46.090;6.350;2023-02-02T06:54:41;97923.19;;;-1.79;100.00
64610;BME280;51019;46.090;6.350;2023-02-02T06:57:11;97927.13;;;-1.63;100.00
64610;BME280;51019;46.090;6.350;2023-02-02T06:59:38;97912.84;;;-1.76;100.00
64610;BME280;51019;46.090;6.350;2023-02-02T07:02:10;97930.13;;;-1.44;100.00
64610;BME280;51019;46.090;6.350;2023-02-02T07:04:38;97939.53;;;-1.43;100.00
64610;BME280;51019;46.090;6.350;2023-02-02T07:07:05;97935.22;;;-1.42;100.00
64610;BME280;51019;46.090;6.350;2023-02-02T07:09:34;97944.78;;;-1.48;100.00
64610;BME280;51019;46.090;6.350;2023-02-02T07:12:03;97944.91;;;-1.54;100.00
64610;BME280;51019;46.090;6.350;2023-02-02T07:14:31;97866.53;;;-2.11;100.00
64610;BME280;51019;46.090;6.350;2023-02-02T07:16:59;97960.56;;;-1.63;100.00
64610;BME280;51019;46.090;6.350;2023-02-02T07:19:26;97886.19;;;-2.10;100.00
64610;BME280;51019;46.090;6.350;2023-02-02T07:21:54;97947.69;;;-1.63;100.00
64610;BME280;51019;46.090;6.350;2023-02-02T07:24:21;97961.53;;;-1.31;100.00
64610;BME280;51019;46.090;6.350;2023-02-02T07:26:49;97937.75;;;-1.39;100.00
64610;BME280;51019;46.090;6.350;2023-02-02T07:29:20;97927.78;;;-1.55;100.00
64610;BME280;51019;46.090;6.350;2023-02-02T07:31:48;97952.06;;;-1.29;100.00
64610;BME280;51019;46.090;6.350;2023-02-02T07:34:17;97958.09;;;-1.30;100.00
64610;BME280;51019;46.090;6.350;2023-02-02T07:36:45;97933.91;;;-1.59;100.00
64610;BME280;51019;46.090;6.350;2023-02-02T07:39:14;97962.47;;;-1.34;100.00
64610;BME280;51019;46.090;6.350;2023-02-02T07:41:42;97971.22;;;-1.05;100.00
64610;BME280;51019;46.090;6.350;2023-02-02T07:44:12;97972.69;;;-0.95;100.00
64610;BME280;51019;46.090;6.350;2023-02-02T07:46:44;97974.34;;;-0.93;100.00
64610;BME280;51019;46.090;6.350;2023-02-02T07:49:14;97964.59;;;-0.80;100.00
64610;BME280;51019;46.090;6.350;2023-02-02T07:51:46;97970.94;;;-0.59;100.00
64610;BME280;51019;46.090;6.350;2023-02-02T07:54:14;97944.34;;;-0.60;100.00
64610;BME280;51019;46.090;6.350;2023-02-02T07:56:42;97966.38;;;-0.50;100.00
64610;BME280;51019;46.090;6.350;2023-02-02T07:59:11;97931.31;;;-0.55;100.00
64610;BME280;51019;46.090;6.350;2023-02-02T08:01:38;97948.81;;;-0.34;100.00
64610;BME280;51019;46.090;6.350;2023-02-02T08:04:08;97968.81;;;-0.13;100.00
64610;BME280;51019;46.090;6.350;2023-02-02T08:06:37;97983.66;;;0.10;100.00
64610;BME280;51019;46.090;6.350;2023-02-02T08:09:07;97973.69;;;-0.02;100.00
64610;BME280;51019;46.090;6.350;2023-02-02T08:11:37;97900.13;;;-0.45;100.00
64610;BME280;51019;46.090;6.350;2023-02-02T08:14:05;97984.50;;;0.11;100.00
64610;BME280;51019;46.090;6.350;2023-02-02T08:16:39;97978.16;;;0.50;100.00
64610;BME280;51019;46.090;6.350;2023-02-02T08:19:11;97980.50;;;0.58;100.00
64610;BME280;51019;46.090;6.350;2023-02-02T08:21:39;97966.19;;;0.48;100.00
64610;BME280;51019;46.090;6.350;2023-02-02T08:24:10;97979.19;;;0.72;100.00
64610;BME280;51019;46.090;6.350;2023-02-02T08:26:38;97979.94;;;0.76;100.00
64610;BME280;51019;46.090;6.350;2023-02-02T08:29:11;97988.19;;;0.59;100.00
64610;BME280;51019;46.090;6.350;2023-02-02T08:31:42;97969.16;;;0.63;100.00
64610;BME280;51019;46.090;6.350;2023-02-02T08:34:12;97988.81;;;0.95;100.00
64610;BME280;51019;46.090;6.350;2023-02-02T08:36:42;97987.97;;;0.95;100.00
64610;BME280;51019;46.090;6.350;2023-02-02T08:39:10;97976.94;;;0.90;100.00
64610;BME280;51019;46.090;6.350;2023-02-02T08:41:40;97977.31;;;0.78;100.00
64610;BME280;51019;46.090;6.350;2023-02-02T08:44:10;97888.44;;;0.32;100.00
64610;BME280;51019;46.090;6.350;2023-02-02T08:46:39;97961.09;;;0.74;100.00
64610;BME280;51019;46.090;6.350;2023-02-02T08:49:12;97964.81;;;1.18;100.00
64610;BME280;51019;46.090;6.350;2023-02-02T08:51:48;97917.50;;;1.18;100.00
64610;BME280;51019;46.090;6.350;2023-02-02T08:54:23;97903.94;;;1.84;100.00
64610;BME280;51019;46.090;6.350;2023-02-02T08:56:52;97843.69;;;2.05;100.00
64610;BME280;51019;46.090;6.350;2023-02-02T08:59:21;97905.19;;;2.86;100.00
64610;BME280;51019;46.090;6.350;2023-02-02T09:01:57;97919.16;;;3.04;100.00
64610;BME280;51019;46.090;6.350;2023-02-02T09:04:33;97958.28;;;4.18;100.00
64610;BME280;51019;46.090;6.350;2023-02-02T09:07:04;97955.44;;;4.61;100.00
64610;BME280;51019;46.090;6.350;2023-02-02T09:09:32;97902.47;;;4.64;100.00
64610;BME280;51019;46.090;6.350;2023-02-02T09:12:03;97930.69;;;5.59;100.00
64610;BME280;51019;46.090;6.350;2023-02-02T09:14:39;97963.50;;;5.96;100.00
64610;BME280;51019;46.090;6.350;2023-02-02T09:17:13;97833.56;;;4.93;100.00
64610;BME280;51019;46.090;6.350;2023-02-02T09:19:44;97959.50;;;6.39;97.44
64610;BME280;51019;46.090;6.350;2023-02-02T09:22:16;97870.50;;;6.47;94.17
64610;BME280;51019;46.090;6.350;2023-02-02T09:24:52;97867.75;;;5.86;93.08
64610;BME280;51019;46.090;6.350;2023-02-02T09:27:24;97910.22;;;6.03;93.38
64610;BME280;51019;46.090;6.350;2023-02-02T09:29:52;97886.97;;;6.16;94.01
64610;BME280;51019;46.090;6.350;2023-02-02T09:32:24;97992.03;;;6.64;91.23
64610;BME280;51019;46.090;6.350;2023-02-02T09:34:51;97957.16;;;7.27;87.58
64610;BME280;51019;46.090;6.350;2023-02-02T09:37:25;97989.69;;;7.36;89.04
64610;BME280;51019;46.090;6.350;2023-02-02T09:39:53;97985.50;;;8.08;85.45
64610;BME280;51019;46.090;6.350;2023-02-02T09:42:43;97991.06;;;7.57;80.62
64610;BME280;51019;46.090;6.350;2023-02-02T09:45:21;97987.19;;;8.09;76.68
64610;BME280;51019;46.090;6.350;2023-02-02T09:47:55;97958.84;;;8.17;75.69
64610;BME280;51019;46.090;6.350;2023-02-02T09:53:14;97887.41;;;7.75;72.50
64610;BME280;51019;46.090;6.350;2023-02-02T09:55:47;97941.09;;;8.64;69.86
64610;BME280;51019;46.090;6.350;2023-02-02T09:58:19;97972.13;;;8.42;70.19
64610;BME280;51019;46.090;6.350;2023-02-02T10:01:00;97961.75;;;8.41;69.39
64610;BME280;51019;46.090;6.350;2023-02-02T10:06:42;97942.78;;;9.71;62.85
64610;BME280;51019;46.090;6.350;2023-02-02T10:09:35;97938.53;;;9.70;61.61
64610;BME280;51019;46.090;6.350;2023-02-02T10:12:18;97940.38;;;9.16;61.74
64610;BME280;51019;46.090;6.350;2023-02-02T10:14:55;97934.72;;;9.09;63.28
64610;BME280;51019;46.090;6.350;2023-02-02T10:17:36;97852.09;;;9.83;58.95
64610;BME280;51019;46.090;6.350;2023-02-02T10:26:36;97851.50;;;9.79;55.59
64610;BME280;51019;46.090;6.350;2023-02-02T10:29:11;97844.66;;;10.02;54.72
64610;BME280;51019;46.090;6.350;2023-02-02T10:31:50;97965.09;;;11.74;51.49
64610;BME280;51019;46.090;6.350;2023-02-02T10:34:44;97855.50;;;11.29;49.58
64610;BME280;51019;46.090;6.350;2023-02-02T10:37:40;97922.16;;;11.86;48.92
64610;BME280;51019;46.090;6.350;2023-02-02T10:41:21;97920.91;;;11.09;50.63
64610;BME280;51019;46.090;6.350;2023-02-02T10:44:05;97916.06;;;11.85;48.79
64610;BME280;51019;46.090;6.350;2023-02-02T10:46:49;97845.91;;;12.64;44.59
64610;BME280;51019;46.090;6.350;2023-02-02T10:49:32;97918.56;;;12.65;46.53
64610;BME280;51019;46.090;6.350;2023-02-02T10:52:16;97966.66;;;14.47;42.56
64610;BME280;51019;46.090;6.350;2023-02-02T10:56:06;97860.56;;;13.21;43.46
64610;BME280;51019;46.090;6.350;2023-02-02T10:58:17;97938.06;;;13.80;41.84
64610;BME280;51019;46.090;6.350;2023-02-02T11:00:52;97856.66;;;13.36;42.37
64610;BME280;51019;46.090;6.350;2023-02-02T11:03:26;97927.34;;;13.72;42.82
64610;BME280;51019;46.090;6.350;2023-02-02T11:06:00;97963.41;;;13.93;42.75
64610;BME280;51019;46.090;6.350;2023-02-02T11:08:48;97970.97;;;13.33;43.07
64610;BME280;51019;46.090;6.350;2023-02-02T11:11:22;97967.91;;;13.06;44.06
64610;BME280;51019;46.090;6.350;2023-02-02T11:13:54;97955.84;;;14.50;41.91
64610;BME280;51019;46.090;6.350;2023-02-02T11:16:27;97983.63;;;14.85;40.57
64610;BME280;51019;46.090;6.350;2023-02-02T11:18:56;97979.44;;;13.69;41.79
64610;BME280;51019;46.090;6.350;2023-02-02T11:21:28;97991.38;;;14.05;42.07
64610;BME280;51019;46.090;6.350;2023-02-02T11:24:00;97979.56;;;13.99;40.72
64610;BME280;51019;46.090;6.350;2023-02-02T11:26:44;97989.88;;;14.94;40.94
64610;BME280;51019;46.090;6.350;2023-02-02T11:29:17;97969.66;;;14.64;40.90
64610;BME280;51019;46.090;6.350;2023-02-02T11:31:54;97988.41;;;15.10;41.14
64610;BME280;51019;46.090;6.350;2023-02-02T11:34:24;97979.09;;;13.73;43.39
64610;BME280;51019;46.090;6.350;2023-02-02T11:37:11;97985.25;;;14.04;43.70
64610;BME280;51019;46.090;6.350;2023-02-02T11:39:40;97973.22;;;13.70;44.05
64610;BME280;51019;46.090;6.350;2023-02-02T11:42:12;97975.91;;;13.27;44.43
64610;BME280;51019;46.090;6.350;2023-02-02T11:44:45;97982.06;;;14.22;43.89
64610;BME280;51019;46.090;6.350;2023-02-02T11:47:25;97962.75;;;13.79;44.60
64610;BME280;51019;46.090;6.350;2023-02-02T11:49:53;97968.78;;;13.70;44.58
64610;BME280;51019;46.090;6.350;2023-02-02T11:52:24;97971.94;;;14.06;43.88
64610;BME280;51019;46.090;6.350;2023-02-02T11:54:55;97971.56;;;14.31;42.96
64610;BME280;51019;46.090;6.350;2023-02-02T11:57:27;97971.38;;;14.84;41.53
64610;BME280;51019;46.090;6.350;2023-02-02T12:00:06;97888.63;;;15.52;39.45
64610;BME280;51019;46.090;6.350;2023-02-02T12:02:47;97842.22;;;13.51;42.21
64610;BME280;51019;46.090;6.350;2023-02-02T12:05:52;97959.94;;;12.96;44.41
64610;BME280;51019;46.090;6.350;2023-02-02T12:08:42;97944.88;;;14.04;43.58
64610;BME280;51019;46.090;6.350;2023-02-02T12:13:06;97946.31;;;16.52;39.14
64610;BME280;51019;46.090;6.350;2023-02-02T12:20:59;97955.53;;;16.38;38.24
64610;BME280;51019;46.090;6.350;2023-02-02T12:23:40;97937.72;;;16.40;37.72
64610;BME280;51019;46.090;6.350;2023-02-02T12:26:20;97944.69;;;15.75;38.17
64610;BME280;51019;46.090;6.350;2023-02-02T12:29:12;97939.75;;;16.19;38.49
64610;BME280;51019;46.090;6.350;2023-02-02T12:34:40;97949.25;;;13.20;45.27
64610;BME280;51019;46.090;6.350;2023-02-02T12:37:19;97912.41;;;15.52;39.90
64610;BME280;51019;46.090;6.350;2023-02-02T12:40:02;97915.13;;;12.42;47.08
64610;BME280;51019;46.090;6.350;2023-02-02T12:42:41;97906.44;;;10.17;52.46
64610;BME280;51019;46.090;6.350;2023-02-02T12:45:35;97921.41;;;10.90;53.46
64610;BME280;51019;46.090;6.350;2023-02-02T12:48:16;97896.81;;;9.55;54.44
64610;BME280;51019;46.090;6.350;2023-02-02T12:50:59;97914.97;;;9.18;56.26
64610;BME280;51019;46.090;6.350;2023-02-02T12:53:39;97912.81;;;9.37;56.34
64610;BME280;51019;46.090;6.350;2023-02-02T12:56:19;97907.69;;;8.96;57.69
64610;BME280;51019;46.090;6.350;2023-02-02T12:58:56;97903.75;;;8.62;59.96
64610;BME280;51019;46.090;6.350;2023-02-02T13:01:37;97914.16;;;9.03;58.08
64610;BME280;51019;46.090;6.350;2023-02-02T13:04:41;97917.56;;;8.79;58.66
64610;BME280;51019;46.090;6.350;2023-02-02T13:07:27;97911.78;;;8.59;59.03
64610;BME280;51019;46.090;6.350;2023-02-02T13:10:17;97915.75;;;8.38;59.38
64610;BME280;51019;46.090;6.350;2023-02-02T13:12:51;97914.81;;;8.39;61.10
64610;BME280;51019;46.090;6.350;2023-02-02T13:15:27;97901.94;;;8.22;61.40
64610;BME280;51019;46.090;6.350;2023-02-02T13:17:59;97905.31;;;8.10;62.57
64610;BME280;51019;46.090;6.350;2023-02-02T13:20:36;97884.03;;;8.01;64.17
64610;BME280;51019;46.090;6.350;2023-02-02T13:23:08;97919.19;;;8.24;63.05
64610;BME280;51019;46.090;6.350;2023-02-02T13:25:41;97923.84;;;8.05;64.88
64610;BME280;51019;46.090;6.350;2023-02-02T13:28:18;97928.81;;;7.95;65.64
64610;BME280;51019;46.090;6.350;2023-02-02T13:30:51;97924.31;;;7.83;64.40
64610;BME280;51019;46.090;6.350;2023-02-02T13:33:22;97917.22;;;7.71;63.28
64610;BME280;51019;46.090;6.350;2023-02-02T13:35:55;97934.03;;;7.95;63.80
64610;BME280;51019;46.090;6.350;2023-02-02T13:38:26;97929.47;;;7.99;64.08
64610;BME280;51019;46.090;6.350;2023-02-02T13:41:00;97936.81;;;8.07;63.81
64610;BME280;51019;46.090;6.350;2023-02-02T13:43:37;97927.59;;;8.01;64.74
64610;BME280;51019;46.090;6.350;2023-02-02T13:46:16;97906.41;;;8.06;63.73
64610;BME280;51019;46.090;6.350;2023-02-02T13:48:53;97914.81;;;8.11;61.40
64610;BME280;51019;46.090;6.350;2023-02-02T13:51:48;97944.28;;;8.27;60.60
64610;BME280;51019;46.090;6.350;2023-02-02T13:54:47;97947.09;;;8.24;60.98